sensor_id;sensor_type;location;lat;lon;timestamp;temperature;humidity
5899;DHT22;2975;50.956;6.962;2022-08-01T00:00:39;21.70;99.90
5899;DHT22;2975;50.956;6.962;2022-08-01T00:03:05;21.70;99.90
5899;DHT22;2975;50.956;6.962;2022-08-01T00:05:31;21.70;99.90
5899;DHT22;2975;50.956;6.962;2022-08-01T00:07:57;21.70;99.90
5899;DHT22;2975;50.956;6.962;2022-08-01T00:10:23;21.70;99.90
5899;DHT22;2975;50.956;6.962;2022-08-01T00:12:48;21.60;99.90
5899;DHT22;2975;50.956;6.962;2022-08-01T00:15:16;21.50;99.90
5899;DHT22;2975;50.956;6.962;2022-08-01T00:17:42;21.50;99.90
5899;DHT22;2975;50.956;6.962;2022-08-01T00:20:10;21.40;99.90
5899;DHT22;2975;50.956;6.962;2022-08-01T00:22:36;21.40;99.90
5899;DHT22;2975;50.956;6.962;2022-08-01T00:25:03;21.30;99.90
5899;DHT22;2975;50.956;6.962;2022-08-01T00:27:29;21.20;99.90
5899;DHT22;2975;50.956;6.962;2022-08-01T00:29:54;21.20;99.90
5899;DHT22;2975;50.956;6.962;2022-08-01T00:32:20;21.30;99.90
5899;DHT22;2975;50.956;6.962;2022-08-01T00:34:45;21.40;99.90
5899;DHT22;2975;50.956;6.962;2022-08-01T00:37:11;21.30;99.90
5899;DHT22;2975;50.956;6.962;2022-08-01T00:39:37;21.30;99.90
5899;DHT22;2975;50.956;6.962;2022-08-01T00:42:06;21.20;99.90
5899;DHT22;2975;50.956;6.962;2022-08-01T00:44:33;21.20;99.90
5899;DHT22;2975;50.956;6.962;2022-08-01T00:46:58;21.20;99.90
5899;DHT22;2975;50.956;6.962;2022-08-01T00:49:24;21.20;99.90
5899;DHT22;2975;50.956;6.962;2022-08-01T00:51:50;21.20;99.90
5899;DHT22;2975;50.956;6.962;2022-08-01T00:54:16;21.20;99.90
5899;DHT22;2975;50.956;6.962;2022-08-01T00:56:41;21.10;99.90
5899;DHT22;2975;50.956;6.962;2022-08-01T00:59:07;21.10;99.90
5899;DHT22;2975;50.956;6.962;2022-08-01T01:01:34;21.10;99.90
5899;DHT22;2975;50.956;6.962;2022-08-01T01:04:00;21.00;99.90
5899;DHT22;2975;50.956;6.962;2022-08-01T01:06:47;21.00;99.90
5899;DHT22;2975;50.956;6.962;2022-08-01T01:12:03;21.00;99.90
5899;DHT22;2975;50.956;6.962;2022-08-01T01:17:14;20.90;99.90
5899;DHT22;2975;50.956;6.962;2022-08-01T01:19:45;20.90;99.90
5899;DHT22;2975;50.956;6.962;2022-08-01T01:22:19;21.00;99.90
5899;DHT22;2975;50.956;6.962;2022-08-01T01:24:51;21.00;99.90
5899;DHT22;2975;50.956;6.962;2022-08-01T01:30:04;20.90;99.90
5899;DHT22;2975;50.956;6.962;2022-08-01T01:32:31;20.80;99.90
5899;DHT22;2975;50.956;6.962;2022-08-01T01:35:02;20.80;99.90
5899;DHT22;2975;50.956;6.962;2022-08-01T01:37:29;20.80;99.90
5899;DHT22;2975;50.956;6.962;2022-08-01T01:39:59;20.80;99.90
5899;DHT22;2975;50.956;6.962;2022-08-01T01:42:26;20.80;99.90
5899;DHT22;2975;50.956;6.962;2022-08-01T01:44:54;20.80;99.90
5899;DHT22;2975;50.956;6.962;2022-08-01T01:47:21;20.80;99.90
5899;DHT22;2975;50.956;6.962;2022-08-01T01:49:48;20.80;99.90
5899;DHT22;2975;50.956;6.962;2022-08-01T01:52:16;20.70;99.90
5899;DHT22;2975;50.956;6.962;2022-08-01T01:54:46;20.70;99.90
5899;DHT22;2975;50.956;6.962;2022-08-01T01:57:14;20.70;99.90
5899;DHT22;2975;50.956;6.962;2022-08-01T01:59:41;20.80;99.90
5899;DHT22;2975;50.956;6.962;2022-08-01T02:02:07;20.70;99.90
5899;DHT22;2975;50.956;6.962;2022-08-01T02:04:40;20.70;99.90
5899;DHT22;2975;50.956;6.962;2022-08-01T02:07:09;20.70;99.90
5899;DHT22;2975;50.956;6.962;2022-08-01T02:09:35;20.70;99.90
5899;DHT22;2975;50.956;6.962;2022-08-01T02:12:03;20.70;99.90
5899;DHT22;2975;50.956;6.962;2022-08-01T02:14:31;20.70;99.90
5899;DHT22;2975;50.956;6.962;2022-08-01T02:16:58;20.70;99.90
5899;DHT22;2975;50.956;6.962;2022-08-01T02:19:24;20.60;99.90
5899;DHT22;2975;50.956;6.962;2022-08-01T02:22:07;20.60;99.90
5899;DHT22;2975;50.956;6.962;2022-08-01T02:24:56;20.60;99.90
5899;DHT22;2975;50.956;6.962;2022-08-01T02:27:28;20.50;99.90
5899;DHT22;2975;50.956;6.962;2022-08-01T02:30:01;20.50;99.90
5899;DHT22;2975;50.956;6.962;2022-08-01T02:32:38;20.60;99.90
5899;DHT22;2975;50.956;6.962;2022-08-01T02:35:07;20.50;99.90
5899;DHT22;2975;50.956;6.962;2022-08-01T02:37:36;20.50;99.90
5899;DHT22;2975;50.956;6.962;2022-08-01T02:40:04;20.50;99.90
5899;DHT22;2975;50.956;6.962;2022-08-01T02:42:32;20.50;99.90
5899;DHT22;2975;50.956;6.962;2022-08-01T02:45:02;20.50;99.90
5899;DHT22;2975;50.956;6.962;2022-08-01T02:47:29;20.50;99.90
5899;DHT22;2975;50.956;6.962;2022-08-01T02:49:55;20.40;99.90
5899;DHT22;2975;50.956;6.962;2022-08-01T02:52:23;20.40;99.90
5899;DHT22;2975;50.956;6.962;2022-08-01T02:54:54;20.30;99.90
5899;DHT22;2975;50.956;6.962;2022-08-01T02:57:20;20.30;99.90
5899;DHT22;2975;50.956;6.962;2022-08-01T02:59:47;20.30;99.90
5899;DHT22;2975;50.956;6.962;2022-08-01T03:02:14;20.30;99.90
5899;DHT22;2975;50.956;6.962;2022-08-01T03:04:41;20.30;99.90
5899;DHT22;2975;50.956;6.962;2022-08-01T03:07:09;20.40;99.90
5899;DHT22;2975;50.956;6.962;2022-08-01T03:09:41;20.40;99.90
5899;DHT22;2975;50.956;6.962;2022-08-01T03:12:13;20.40;99.90
5899;DHT22;2975;50.956;6.962;2022-08-01T03:14:40;20.40;99.90
5899;DHT22;2975;50.956;6.962;2022-08-01T03:17:07;20.40;99.90
5899;DHT22;2975;50.956;6.962;2022-08-01T03:19:34;20.40;99.90
5899;DHT22;2975;50.956;6.962;2022-08-01T03:22:01;20.40;99.90
5899;DHT22;2975;50.956;6.962;2022-08-01T03:24:32;20.40;99.90
5899;DHT22;2975;50.956;6.962;2022-08-01T03:26:58;20.40;99.90
5899;DHT22;2975;50.956;6.962;2022-08-01T03:29:27;20.40;99.90
5899;DHT22;2975;50.956;6.962;2022-08-01T03:31:53;20.30;99.90
5899;DHT22;2975;50.956;6.962;2022-08-01T03:34:19;20.30;99.90
5899;DHT22;2975;50.956;6.962;2022-08-01T03:37:02;20.30;99.90
5899;DHT22;2975;50.956;6.962;2022-08-01T03:39:32;20.30;99.90
5899;DHT22;2975;50.956;6.962;2022-08-01T03:42:05;20.30;99.90
5899;DHT22;2975;50.956;6.962;2022-08-01T03:44:33;20.30;99.90
5899;DHT22;2975;50.956;6.962;2022-08-01T03:47:05;20.30;99.90
5899;DHT22;2975;50.956;6.962;2022-08-01T03:49:33;20.30;99.90
5899;DHT22;2975;50.956;6.962;2022-08-01T03:52:04;20.30;99.90
5899;DHT22;2975;50.956;6.962;2022-08-01T03:54:34;20.50;99.90
5899;DHT22;2975;50.956;6.962;2022-08-01T03:57:01;20.50;99.90
5899;DHT22;2975;50.956;6.962;2022-08-01T03:59:29;20.50;99.90
5899;DHT22;2975;50.956;6.962;2022-08-01T04:01:55;20.40;99.90
5899;DHT22;2975;50.956;6.962;2022-08-01T04:04:21;20.40;99.90
5899;DHT22;2975;50.956;6.962;2022-08-01T04:06:47;20.40;99.90
5899;DHT22;2975;50.956;6.962;2022-08-01T04:09:16;20.40;99.90
5899;DHT22;2975;50.956;6.962;2022-08-01T04:11:43;20.30;99.90
5899;DHT22;2975;50.956;6.962;2022-08-01T04:14:08;20.30;99.90
5899;DHT22;2975;50.956;6.962;2022-08-01T04:16:34;20.40;99.90
5899;DHT22;2975;50.956;6.962;2022-08-01T04:19:00;20.40;99.90
5899;DHT22;2975;50.956;6.962;2022-08-01T04:21:26;20.50;99.90
5899;DHT22;2975;50.956;6.962;2022-08-01T04:23:58;20.50;99.90
5899;DHT22;2975;50.956;6.962;2022-08-01T04:26:25;20.50;99.90
5899;DHT22;2975;50.956;6.962;2022-08-01T04:28:53;20.50;99.90
5899;DHT22;2975;50.956;6.962;2022-08-01T04:31:21;20.50;99.90
5899;DHT22;2975;50.956;6.962;2022-08-01T04:33:50;20.50;99.90
5899;DHT22;2975;50.956;6.962;2022-08-01T04:36:19;20.50;99.90
5899;DHT22;2975;50.956;6.962;2022-08-01T04:38:46;20.50;99.90
5899;DHT22;2975;50.956;6.962;2022-08-01T04:41:14;20.50;99.90
5899;DHT22;2975;50.956;6.962;2022-08-01T04:43:40;20.50;99.90
5899;DHT22;2975;50.956;6.962;2022-08-01T04:46:08;20.50;99.90
5899;DHT22;2975;50.956;6.962;2022-08-01T04:48:37;20.50;99.90
5899;DHT22;2975;50.956;6.962;2022-08-01T04:51:03;20.50;99.90
5899;DHT22;2975;50.956;6.962;2022-08-01T04:53:29;20.50;99.90
5899;DHT22;2975;50.956;6.962;2022-08-01T04:55:57;20.40;99.90
5899;DHT22;2975;50.956;6.962;2022-08-01T04:58:23;20.50;99.90
5899;DHT22;2975;50.956;6.962;2022-08-01T05:00:49;20.50;99.90
5899;DHT22;2975;50.956;6.962;2022-08-01T05:03:14;20.50;99.90
5899;DHT22;2975;50.956;6.962;2022-08-01T05:05:40;20.50;99.90
5899;DHT22;2975;50.956;6.962;2022-08-01T05:08:06;20.60;99.90
5899;DHT22;2975;50.956;6.962;2022-08-01T05:10:31;20.70;99.90
5899;DHT22;2975;50.956;6.962;2022-08-01T05:12:57;20.70;99.90
5899;DHT22;2975;50.956;6.962;2022-08-01T05:15:23;20.60;99.90
5899;DHT22;2975;50.956;6.962;2022-08-01T05:17:48;20.60;99.90
5899;DHT22;2975;50.956;6.962;2022-08-01T05:20:14;20.60;99.90
5899;DHT22;2975;50.956;6.962;2022-08-01T05:22:40;20.60;99.90
5899;DHT22;2975;50.956;6.962;2022-08-01T05:25:06;20.60;99.90
5899;DHT22;2975;50.956;6.962;2022-08-01T05:27:32;20.60;99.90
5899;DHT22;2975;50.956;6.962;2022-08-01T05:30:04;20.60;99.90
5899;DHT22;2975;50.956;6.962;2022-08-01T05:32:29;20.60;99.90
5899;DHT22;2975;50.956;6.962;2022-08-01T05:34:57;20.60;99.90
5899;DHT22;2975;50.956;6.962;2022-08-01T05:37:22;20.70;99.90
5899;DHT22;2975;50.956;6.962;2022-08-01T05:39:48;20.70;99.90
5899;DHT22;2975;50.956;6.962;2022-08-01T05:42:13;20.70;99.90
5899;DHT22;2975;50.956;6.962;2022-08-01T05:44:39;20.60;99.90
5899;DHT22;2975;50.956;6.962;2022-08-01T05:47:05;20.60;99.90
5899;DHT22;2975;50.956;6.962;2022-08-01T05:49:30;20.60;99.90
5899;DHT22;2975;50.956;6.962;2022-08-01T05:51:56;20.60;99.90
5899;DHT22;2975;50.956;6.962;2022-08-01T05:54:22;20.60;99.90
5899;DHT22;2975;50.956;6.962;2022-08-01T05:56:47;20.60;99.90
5899;DHT22;2975;50.956;6.962;2022-08-01T05:59:13;20.60;99.90
5899;DHT22;2975;50.956;6.962;2022-08-01T06:01:38;20.70;99.90
5899;DHT22;2975;50.956;6.962;2022-08-01T06:04:04;20.80;99.90
5899;DHT22;2975;50.956;6.962;2022-08-01T06:06:30;20.80;99.90
5899;DHT22;2975;50.956;6.962;2022-08-01T06:08:55;21.00;99.90
5899;DHT22;2975;50.956;6.962;2022-08-01T06:11:21;21.10;99.90
5899;DHT22;2975;50.956;6.962;2022-08-01T06:13:47;21.30;99.90
5899;DHT22;2975;50.956;6.962;2022-08-01T06:16:12;21.50;99.90
5899;DHT22;2975;50.956;6.962;2022-08-01T06:18:38;21.90;99.90
5899;DHT22;2975;50.956;6.962;2022-08-01T06:21:03;22.20;99.90
5899;DHT22;2975;50.956;6.962;2022-08-01T06:23:29;22.70;99.90
5899;DHT22;2975;50.956;6.962;2022-08-01T06:25:55;23.10;99.90
5899;DHT22;2975;50.956;6.962;2022-08-01T06:28:21;23.70;99.90
5899;DHT22;2975;50.956;6.962;2022-08-01T06:30:47;24.40;99.90
5899;DHT22;2975;50.956;6.962;2022-08-01T06:33:12;24.20;99.90
5899;DHT22;2975;50.956;6.962;2022-08-01T06:35:38;23.80;99.90
5899;DHT22;2975;50.956;6.962;2022-08-01T06:38:04;23.90;99.90
5899;DHT22;2975;50.956;6.962;2022-08-01T06:40:29;23.50;99.90
5899;DHT22;2975;50.956;6.962;2022-08-01T06:42:55;23.00;99.90
5899;DHT22;2975;50.956;6.962;2022-08-01T06:45:21;23.00;99.90
5899;DHT22;2975;50.956;6.962;2022-08-01T06:47:51;23.30;99.90
5899;DHT22;2975;50.956;6.962;2022-08-01T06:50:17;23.70;99.90
5899;DHT22;2975;50.956;6.962;2022-08-01T06:52:42;24.10;99.90
5899;DHT22;2975;50.956;6.962;2022-08-01T06:55:09;24.50;99.90
5899;DHT22;2975;50.956;6.962;2022-08-01T06:57:34;24.10;99.90
5899;DHT22;2975;50.956;6.962;2022-08-01T07:00:07;23.90;99.90
5899;DHT22;2975;50.956;6.962;2022-08-01T07:02:35;23.80;99.90
5899;DHT22;2975;50.956;6.962;2022-08-01T07:05:02;24.10;99.90
5899;DHT22;2975;50.956;6.962;2022-08-01T07:07:29;23.80;99.90
5899;DHT22;2975;50.956;6.962;2022-08-01T07:09:55;23.70;99.90
5899;DHT22;2975;50.956;6.962;2022-08-01T07:12:20;23.40;99.90
5899;DHT22;2975;50.956;6.962;2022-08-01T07:14:46;23.00;99.90
5899;DHT22;2975;50.956;6.962;2022-08-01T07:17:12;22.60;99.90
5899;DHT22;2975;50.956;6.962;2022-08-01T07:19:37;22.50;99.90
5899;DHT22;2975;50.956;6.962;2022-08-01T07:22:03;22.40;99.90
5899;DHT22;2975;50.956;6.962;2022-08-01T07:24:28;22.30;99.90
5899;DHT22;2975;50.956;6.962;2022-08-01T07:26:55;22.30;99.90
5899;DHT22;2975;50.956;6.962;2022-08-01T07:29:24;22.70;99.90
5899;DHT22;2975;50.956;6.962;2022-08-01T07:31:51;23.00;99.90
5899;DHT22;2975;50.956;6.962;2022-08-01T07:34:18;23.20;99.90
5899;DHT22;2975;50.956;6.962;2022-08-01T07:36:44;23.40;99.90
5899;DHT22;2975;50.956;6.962;2022-08-01T07:39:09;23.70;99.90
5899;DHT22;2975;50.956;6.962;2022-08-01T07:41:35;23.90;99.90
5899;DHT22;2975;50.956;6.962;2022-08-01T07:44:00;24.00;99.90
5899;DHT22;2975;50.956;6.962;2022-08-01T07:46:26;24.40;99.90
5899;DHT22;2975;50.956;6.962;2022-08-01T07:48:52;24.80;99.90
5899;DHT22;2975;50.956;6.962;2022-08-01T07:51:18;24.60;99.90
5899;DHT22;2975;50.956;6.962;2022-08-01T07:53:43;24.30;99.90
5899;DHT22;2975;50.956;6.962;2022-08-01T07:56:09;24.30;99.90
5899;DHT22;2975;50.956;6.962;2022-08-01T07:58:35;24.00;99.90
5899;DHT22;2975;50.956;6.962;2022-08-01T08:01:00;24.00;99.90
5899;DHT22;2975;50.956;6.962;2022-08-01T08:03:26;23.90;99.90
5899;DHT22;2975;50.956;6.962;2022-08-01T08:05:52;24.10;99.90
5899;DHT22;2975;50.956;6.962;2022-08-01T08:08:17;24.20;99.90
5899;DHT22;2975;50.956;6.962;2022-08-01T08:10:43;24.30;99.90
5899;DHT22;2975;50.956;6.962;2022-08-01T08:13:09;24.90;98.70
5899;DHT22;2975;50.956;6.962;2022-08-01T08:15:35;25.20;98.00
5899;DHT22;2975;50.956;6.962;2022-08-01T08:18:00;25.30;97.90
5899;DHT22;2975;50.956;6.962;2022-08-01T08:20:27;25.60;98.10
5899;DHT22;2975;50.956;6.962;2022-08-01T08:22:55;25.60;97.30
5899;DHT22;2975;50.956;6.962;2022-08-01T08:25:21;25.70;96.70
5899;DHT22;2975;50.956;6.962;2022-08-01T08:27:47;25.80;97.20
5899;DHT22;2975;50.956;6.962;2022-08-01T08:30:13;26.20;96.60
5899;DHT22;2975;50.956;6.962;2022-08-01T08:32:40;26.20;95.80
5899;DHT22;2975;50.956;6.962;2022-08-01T08:35:06;26.30;96.00
5899;DHT22;2975;50.956;6.962;2022-08-01T08:37:36;26.60;95.40
5899;DHT22;2975;50.956;6.962;2022-08-01T08:40:06;26.90;94.10
5899;DHT22;2975;50.956;6.962;2022-08-01T08:42:32;27.00;93.70
5899;DHT22;2975;50.956;6.962;2022-08-01T08:44:58;26.30;94.20
5899;DHT22;2975;50.956;6.962;2022-08-01T08:47:24;26.10;94.80
5899;DHT22;2975;50.956;6.962;2022-08-01T08:49:52;25.60;95.60
5899;DHT22;2975;50.956;6.962;2022-08-01T08:52:22;25.50;96.00
5899;DHT22;2975;50.956;6.962;2022-08-01T08:54:49;25.90;95.30
5899;DHT22;2975;50.956;6.962;2022-08-01T08:57:16;26.20;94.70
5899;DHT22;2975;50.956;6.962;2022-08-01T08:59:44;26.20;94.90
5899;DHT22;2975;50.956;6.962;2022-08-01T09:02:10;26.20;95.00
5899;DHT22;2975;50.956;6.962;2022-08-01T09:04:36;26.00;94.60
5899;DHT22;2975;50.956;6.962;2022-08-01T09:07:05;25.70;95.10
5899;DHT22;2975;50.956;6.962;2022-08-01T09:09:31;25.90;95.10
5899;DHT22;2975;50.956;6.962;2022-08-01T09:11:57;25.90;94.80
5899;DHT22;2975;50.956;6.962;2022-08-01T09:14:23;25.60;95.00
5899;DHT22;2975;50.956;6.962;2022-08-01T09:22:07;25.50;95.70
5899;DHT22;2975;50.956;6.962;2022-08-01T09:24:33;25.20;96.40
5899;DHT22;2975;50.956;6.962;2022-08-01T09:27:00;25.40;96.40
5899;DHT22;2975;50.956;6.962;2022-08-01T09:29:31;25.30;96.70
5899;DHT22;2975;50.956;6.962;2022-08-01T09:31:57;25.10;97.20
5899;DHT22;2975;50.956;6.962;2022-08-01T09:34:29;25.10;97.10
5899;DHT22;2975;50.956;6.962;2022-08-01T09:36:57;25.30;97.00
5899;DHT22;2975;50.956;6.962;2022-08-01T09:39:25;25.60;96.70
5899;DHT22;2975;50.956;6.962;2022-08-01T09:41:55;25.90;95.60
5899;DHT22;2975;50.956;6.962;2022-08-01T09:44:40;25.90;95.70
5899;DHT22;2975;50.956;6.962;2022-08-01T09:47:06;26.30;95.10
5899;DHT22;2975;50.956;6.962;2022-08-01T09:49:34;26.30;94.40
5899;DHT22;2975;50.956;6.962;2022-08-01T09:54:35;26.50;94.20
5899;DHT22;2975;50.956;6.962;2022-08-01T09:59:39;27.00;93.20
5899;DHT22;2975;50.956;6.962;2022-08-01T10:02:08;27.10;92.40
5899;DHT22;2975;50.956;6.962;2022-08-01T10:04:35;27.10;92.50
5899;DHT22;2975;50.956;6.962;2022-08-01T10:07:07;26.90;93.00
5899;DHT22;2975;50.956;6.962;2022-08-01T10:09:35;27.10;92.80
5899;DHT22;2975;50.956;6.962;2022-08-01T10:12:02;27.00;92.90
5899;DHT22;2975;50.956;6.962;2022-08-01T10:14:28;26.80;93.00
5899;DHT22;2975;50.956;6.962;2022-08-01T10:16:57;26.50;93.20
5899;DHT22;2975;50.956;6.962;2022-08-01T10:19:25;26.20;93.30
5899;DHT22;2975;50.956;6.962;2022-08-01T10:21:53;26.20;93.50
5899;DHT22;2975;50.956;6.962;2022-08-01T10:24:23;26.90;92.40
5899;DHT22;2975;50.956;6.962;2022-08-01T10:26:51;26.80;91.70
5899;DHT22;2975;50.956;6.962;2022-08-01T10:29:18;26.60;91.70
5899;DHT22;2975;50.956;6.962;2022-08-01T10:31:46;26.40;92.00
5899;DHT22;2975;50.956;6.962;2022-08-01T10:34:13;26.30;92.30
5899;DHT22;2975;50.956;6.962;2022-08-01T10:36:42;26.60;92.50
5899;DHT22;2975;50.956;6.962;2022-08-01T10:39:11;26.50;92.30
5899;DHT22;2975;50.956;6.962;2022-08-01T10:41:39;26.30;92.80
5899;DHT22;2975;50.956;6.962;2022-08-01T10:44:07;26.50;92.70
5899;DHT22;2975;50.956;6.962;2022-08-01T10:46:38;27.00;91.60
5899;DHT22;2975;50.956;6.962;2022-08-01T10:49:16;26.90;91.90
5899;DHT22;2975;50.956;6.962;2022-08-01T10:51:42;26.50;92.10
5899;DHT22;2975;50.956;6.962;2022-08-01T10:54:10;26.40;92.50
5899;DHT22;2975;50.956;6.962;2022-08-01T10:56:40;26.40;92.50
5899;DHT22;2975;50.956;6.962;2022-08-01T10:59:07;26.60;92.20
5899;DHT22;2975;50.956;6.962;2022-08-01T11:01:33;26.50;92.20
5899;DHT22;2975;50.956;6.962;2022-08-01T11:07:05;26.20;93.20
5899;DHT22;2975;50.956;6.962;2022-08-01T11:12:09;26.70;91.50
5899;DHT22;2975;50.956;6.962;2022-08-01T11:17:42;26.70;91.90
5899;DHT22;2975;50.956;6.962;2022-08-01T11:20:17;26.80;91.90
5899;DHT22;2975;50.956;6.962;2022-08-01T11:30:53;25.90;92.50
5899;DHT22;2975;50.956;6.962;2022-08-01T11:38:48;26.20;92.60
5899;DHT22;2975;50.956;6.962;2022-08-01T11:46:57;26.60;91.40
5899;DHT22;2975;50.956;6.962;2022-08-01T11:49:43;26.40;91.70
5899;DHT22;2975;50.956;6.962;2022-08-01T11:54:46;26.60;90.30
5899;DHT22;2975;50.956;6.962;2022-08-01T11:59:46;26.40;89.50
5899;DHT22;2975;50.956;6.962;2022-08-01T12:02:20;26.60;90.50
5899;DHT22;2975;50.956;6.962;2022-08-01T12:04:54;26.70;89.60
5899;DHT22;2975;50.956;6.962;2022-08-01T12:07:21;27.20;87.40
5899;DHT22;2975;50.956;6.962;2022-08-01T12:09:48;27.40;85.90
5899;DHT22;2975;50.956;6.962;2022-08-01T12:12:17;27.50;86.50
5899;DHT22;2975;50.956;6.962;2022-08-01T12:14:45;27.10;86.90
5899;DHT22;2975;50.956;6.962;2022-08-01T12:17:11;27.00;88.10
5899;DHT22;2975;50.956;6.962;2022-08-01T12:19:37;27.10;88.70
5899;DHT22;2975;50.956;6.962;2022-08-01T12:22:14;27.10;88.60
5899;DHT22;2975;50.956;6.962;2022-08-01T12:24:41;27.10;88.60
5899;DHT22;2975;50.956;6.962;2022-08-01T12:27:08;26.60;89.60
5899;DHT22;2975;50.956;6.962;2022-08-01T12:29:40;26.40;90.10
5899;DHT22;2975;50.956;6.962;2022-08-01T12:32:29;26.30;90.30
5899;DHT22;2975;50.956;6.962;2022-08-01T12:35:06;26.60;90.00
5899;DHT22;2975;50.956;6.962;2022-08-01T12:37:43;26.60;90.20
5899;DHT22;2975;50.956;6.962;2022-08-01T12:42:56;26.70;88.10
5899;DHT22;2975;50.956;6.962;2022-08-01T12:45:25;26.60;88.10
5899;DHT22;2975;50.956;6.962;2022-08-01T12:47:55;26.60;86.00
5899;DHT22;2975;50.956;6.962;2022-08-01T12:50:24;26.50;86.10
5899;DHT22;2975;50.956;6.962;2022-08-01T12:52:51;26.60;86.60
5899;DHT22;2975;50.956;6.962;2022-08-01T12:55:21;26.50;86.50
5899;DHT22;2975;50.956;6.962;2022-08-01T12:57:48;26.80;85.90
5899;DHT22;2975;50.956;6.962;2022-08-01T13:00:23;26.70;86.30
5899;DHT22;2975;50.956;6.962;2022-08-01T13:02:59;26.80;86.50
5899;DHT22;2975;50.956;6.962;2022-08-01T13:05:26;26.90;86.80
5899;DHT22;2975;50.956;6.962;2022-08-01T13:07:52;27.30;84.40
5899;DHT22;2975;50.956;6.962;2022-08-01T13:10:27;27.40;84.50
5899;DHT22;2975;50.956;6.962;2022-08-01T13:12:57;27.10;86.20
5899;DHT22;2975;50.956;6.962;2022-08-01T13:15:31;27.00;85.80
5899;DHT22;2975;50.956;6.962;2022-08-01T13:17:59;27.00;86.30
5899;DHT22;2975;50.956;6.962;2022-08-01T13:20:33;27.00;85.90
5899;DHT22;2975;50.956;6.962;2022-08-01T13:23:16;26.90;85.90
5899;DHT22;2975;50.956;6.962;2022-08-01T13:25:50;27.50;85.00
5899;DHT22;2975;50.956;6.962;2022-08-01T13:28:27;28.00;83.30
5899;DHT22;2975;50.956;6.962;2022-08-01T13:33:24;27.70;82.70
5899;DHT22;2975;50.956;6.962;2022-08-01T13:35:51;27.70;82.90
5899;DHT22;2975;50.956;6.962;2022-08-01T13:38:17;27.60;80.20
5899;DHT22;2975;50.956;6.962;2022-08-01T13:40:43;27.90;79.10
5899;DHT22;2975;50.956;6.962;2022-08-01T13:43:08;28.00;78.00
5899;DHT22;2975;50.956;6.962;2022-08-01T13:45:34;27.80;78.60
5899;DHT22;2975;50.956;6.962;2022-08-01T13:48:00;27.80;79.10
5899;DHT22;2975;50.956;6.962;2022-08-01T13:50:26;27.90;78.20
5899;DHT22;2975;50.956;6.962;2022-08-01T13:52:51;28.00;76.70
5899;DHT22;2975;50.956;6.962;2022-08-01T13:55:17;27.80;76.70
5899;DHT22;2975;50.956;6.962;2022-08-01T13:57:43;27.90;76.40
5899;DHT22;2975;50.956;6.962;2022-08-01T14:00:09;28.00;76.60
5899;DHT22;2975;50.956;6.962;2022-08-01T14:02:35;28.30;75.50
5899;DHT22;2975;50.956;6.962;2022-08-01T14:05:01;28.30;74.90
5899;DHT22;2975;50.956;6.962;2022-08-01T14:07:27;28.10;75.60
5899;DHT22;2975;50.956;6.962;2022-08-01T14:09:53;27.80;75.40
5899;DHT22;2975;50.956;6.962;2022-08-01T14:12:19;27.60;74.70
5899;DHT22;2975;50.956;6.962;2022-08-01T14:14:44;27.30;75.50
5899;DHT22;2975;50.956;6.962;2022-08-01T14:17:10;27.30;76.10
5899;DHT22;2975;50.956;6.962;2022-08-01T14:19:36;27.50;76.30
5899;DHT22;2975;50.956;6.962;2022-08-01T14:22:02;27.70;75.50
5899;DHT22;2975;50.956;6.962;2022-08-01T14:24:27;27.90;75.50
5899;DHT22;2975;50.956;6.962;2022-08-01T14:26:53;27.90;75.50
5899;DHT22;2975;50.956;6.962;2022-08-01T14:29:19;27.80;75.50
5899;DHT22;2975;50.956;6.962;2022-08-01T14:31:45;27.60;76.30
5899;DHT22;2975;50.956;6.962;2022-08-01T14:34:10;27.70;75.00
5899;DHT22;2975;50.956;6.962;2022-08-01T14:36:38;27.60;75.60
5899;DHT22;2975;50.956;6.962;2022-08-01T14:39:04;27.30;74.90
5899;DHT22;2975;50.956;6.962;2022-08-01T14:41:29;27.20;76.30
5899;DHT22;2975;50.956;6.962;2022-08-01T14:43:55;27.50;76.00
5899;DHT22;2975;50.956;6.962;2022-08-01T14:46:20;27.70;74.90
5899;DHT22;2975;50.956;6.962;2022-08-01T14:48:46;27.80;74.10
5899;DHT22;2975;50.956;6.962;2022-08-01T14:51:11;28.10;73.90
5899;DHT22;2975;50.956;6.962;2022-08-01T14:53:37;27.80;74.50
5899;DHT22;2975;50.956;6.962;2022-08-01T14:56:05;27.60;75.00
5899;DHT22;2975;50.956;6.962;2022-08-01T14:58:30;27.60;75.40
5899;DHT22;2975;50.956;6.962;2022-08-01T15:00:56;27.60;76.80
5899;DHT22;2975;50.956;6.962;2022-08-01T15:03:22;27.70;77.40
5899;DHT22;2975;50.956;6.962;2022-08-01T15:05:48;27.50;78.20
5899;DHT22;2975;50.956;6.962;2022-08-01T15:08:13;27.40;77.90
5899;DHT22;2975;50.956;6.962;2022-08-01T15:10:39;27.40;78.40
5899;DHT22;2975;50.956;6.962;2022-08-01T15:13:05;27.40;78.80
5899;DHT22;2975;50.956;6.962;2022-08-01T15:15:31;27.60;77.90
5899;DHT22;2975;50.956;6.962;2022-08-01T15:17:56;27.40;78.10
5899;DHT22;2975;50.956;6.962;2022-08-01T15:20:23;27.30;77.60
5899;DHT22;2975;50.956;6.962;2022-08-01T15:22:48;27.50;76.60
5899;DHT22;2975;50.956;6.962;2022-08-01T15:25:14;27.60;76.80
5899;DHT22;2975;50.956;6.962;2022-08-01T15:27:40;27.40;77.30
5899;DHT22;2975;50.956;6.962;2022-08-01T15:30:06;27.50;77.50
5899;DHT22;2975;50.956;6.962;2022-08-01T15:32:32;27.50;75.90
5899;DHT22;2975;50.956;6.962;2022-08-01T15:34:57;27.60;75.50
5899;DHT22;2975;50.956;6.962;2022-08-01T15:37:23;27.50;76.20
5899;DHT22;2975;50.956;6.962;2022-08-01T15:39:49;27.40;76.90
5899;DHT22;2975;50.956;6.962;2022-08-01T15:42:16;27.30;78.00
5899;DHT22;2975;50.956;6.962;2022-08-01T15:44:42;27.30;76.90
5899;DHT22;2975;50.956;6.962;2022-08-01T15:47:09;27.50;77.00
5899;DHT22;2975;50.956;6.962;2022-08-01T15:49:35;27.20;78.60
5899;DHT22;2975;50.956;6.962;2022-08-01T15:52:08;26.90;80.90
5899;DHT22;2975;50.956;6.962;2022-08-01T15:54:35;26.70;81.20
5899;DHT22;2975;50.956;6.962;2022-08-01T15:57:01;26.60;82.10
5899;DHT22;2975;50.956;6.962;2022-08-01T15:59:27;26.60;81.90
5899;DHT22;2975;50.956;6.962;2022-08-01T16:01:54;26.70;82.00
5899;DHT22;2975;50.956;6.962;2022-08-01T16:04:19;26.90;82.40
5899;DHT22;2975;50.956;6.962;2022-08-01T16:06:46;26.60;84.00
5899;DHT22;2975;50.956;6.962;2022-08-01T16:09:12;26.40;84.90
5899;DHT22;2975;50.956;6.962;2022-08-01T16:11:38;26.60;84.90
5899;DHT22;2975;50.956;6.962;2022-08-01T16:14:03;26.50;85.10
5899;DHT22;2975;50.956;6.962;2022-08-01T16:16:29;26.30;85.60
5899;DHT22;2975;50.956;6.962;2022-08-01T16:18:55;26.30;85.60
5899;DHT22;2975;50.956;6.962;2022-08-01T16:21:21;26.30;86.20
5899;DHT22;2975;50.956;6.962;2022-08-01T16:23:48;26.00;86.80
5899;DHT22;2975;50.956;6.962;2022-08-01T16:26:14;25.90;88.10
5899;DHT22;2975;50.956;6.962;2022-08-01T16:28:39;26.00;87.60
5899;DHT22;2975;50.956;6.962;2022-08-01T16:31:05;26.10;87.40
5899;DHT22;2975;50.956;6.962;2022-08-01T16:33:31;26.40;86.30
5899;DHT22;2975;50.956;6.962;2022-08-01T16:35:59;26.40;85.80
5899;DHT22;2975;50.956;6.962;2022-08-01T16:38:25;26.30;85.40
5899;DHT22;2975;50.956;6.962;2022-08-01T16:40:50;26.00;86.70
5899;DHT22;2975;50.956;6.962;2022-08-01T16:43:18;25.90;87.70
5899;DHT22;2975;50.956;6.962;2022-08-01T16:45:44;25.80;88.30
5899;DHT22;2975;50.956;6.962;2022-08-01T16:48:14;25.60;88.80
5899;DHT22;2975;50.956;6.962;2022-08-01T16:50:42;25.30;89.90
5899;DHT22;2975;50.956;6.962;2022-08-01T16:53:08;25.10;90.50
5899;DHT22;2975;50.956;6.962;2022-08-01T16:55:34;25.00;91.20
5899;DHT22;2975;50.956;6.962;2022-08-01T16:58:01;25.10;90.90
5899;DHT22;2975;50.956;6.962;2022-08-01T17:00:26;25.10;91.10